createdAt,value
2023-04-04T00:00:02.690Z,1.60
2023-04-04T00:01:02.775Z,1.60
2023-04-04T00:02:02.956Z,1.60
2023-04-04T00:03:03.055Z,1.60
2023-04-04T00:04:03.300Z,1.60
2023-04-04T00:05:03.356Z,1.50
2023-04-04T00:06:03.288Z,1.50
2023-04-04T00:07:03.369Z,1.50
2023-04-04T00:08:03.410Z,1.50
2023-04-04T00:09:03.442Z,1.50
2023-04-04T00:10:03.824Z,1.50
2023-04-04T00:11:03.009Z,1.50
2023-04-04T00:12:03.114Z,1.50
2023-04-04T00:13:03.288Z,1.50
2023-04-04T00:14:03.408Z,1.50
2023-04-04T00:15:03.532Z,1.50
2023-04-04T00:16:03.820Z,1.50
2023-04-04T00:17:03.641Z,1.50
2023-04-04T00:18:02.827Z,1.50
2023-04-04T00:19:02.796Z,1.60
2023-04-04T00:20:02.945Z,1.50
2023-04-04T00:21:02.909Z,1.60
2023-04-04T00:22:03.133Z,1.50
2023-04-04T00:23:03.113Z,1.50
2023-04-04T00:24:03.038Z,1.50
2023-04-04T00:25:03.248Z,1.60
2023-04-04T00:26:03.158Z,1.50
2023-04-04T00:27:03.176Z,1.50
2023-04-04T00:28:03.398Z,1.50
2023-04-04T00:29:03.375Z,1.50
2023-04-04T00:30:03.400Z,1.50
2023-04-04T00:31:03.550Z,1.50
2023-04-04T00:32:02.685Z,1.50
2023-04-04T00:33:02.755Z,1.50
2023-04-04T00:34:02.776Z,1.50
2023-04-04T00:35:02.786Z,1.50
2023-04-04T00:36:02.925Z,1.50
2023-04-04T00:37:02.976Z,1.50
2023-04-04T00:38:02.996Z,1.50
2023-04-04T00:39:03.025Z,1.50
2023-04-04T00:40:03.225Z,1.50
2023-04-04T00:41:03.177Z,1.50
2023-04-04T00:42:03.136Z,1.50
2023-04-04T00:43:03.261Z,1.50
2023-04-04T00:44:03.470Z,1.50
2023-04-04T00:45:03.563Z,1.50
2023-04-04T00:46:02.898Z,1.50
2023-04-04T00:47:02.911Z,1.50
2023-04-04T00:48:03.044Z,1.50
2023-04-04T00:49:03.197Z,1.50
2023-04-04T00:50:03.316Z,1.50
2023-04-04T00:51:03.372Z,1.50
2023-04-04T00:52:03.509Z,1.50
2023-04-04T00:53:03.502Z,1.50
2023-04-04T00:54:03.574Z,1.50
2023-04-04T00:55:03.793Z,1.50
2023-04-04T00:56:02.828Z,1.50
2023-04-04T00:57:02.819Z,1.50
2023-04-04T00:58:03.022Z,1.50
2023-04-04T00:59:02.921Z,1.50
2023-04-04T01:00:02.973Z,1.50
2023-04-04T01:01:03.291Z,1.50
2023-04-04T01:02:03.337Z,1.50
2023-04-04T01:03:03.356Z,1.50
2023-04-04T01:04:03.384Z,1.50
2023-04-04T01:05:03.559Z,1.50
2023-04-04T01:06:03.529Z,1.50
2023-04-04T01:07:03.832Z,1.50
2023-04-04T01:08:02.698Z,1.50
2023-04-04T01:09:02.716Z,1.50
2023-04-04T01:10:02.785Z,1.50
2023-04-04T01:11:02.926Z,1.50
2023-04-04T01:12:02.936Z,1.50
2023-04-04T01:13:02.974Z,1.50
2023-04-04T01:14:03.002Z,1.50
2023-04-04T01:15:02.970Z,1.50
2023-04-04T01:16:03.025Z,1.50
2023-04-04T01:17:03.397Z,1.50
2023-04-04T01:18:03.354Z,1.50
2023-04-04T01:19:03.406Z,1.50
2023-04-04T01:20:03.469Z,1.50
2023-04-04T01:21:03.462Z,1.50
2023-04-04T01:22:03.737Z,1.50
2023-04-04T01:23:02.689Z,1.50
2023-04-04T01:24:02.676Z,1.50
2023-04-04T01:25:02.855Z,1.50
2023-04-04T01:26:03.261Z,1.50
2023-04-04T01:27:03.333Z,1.50
2023-04-04T01:28:03.575Z,1.50
2023-04-04T01:29:02.650Z,1.50
2023-04-04T01:30:02.684Z,1.50
2023-04-04T01:31:02.724Z,1.50
2023-04-04T01:32:02.921Z,1.50
2023-04-04T01:33:02.935Z,1.50
2023-04-04T01:34:03.098Z,1.50
2023-04-04T01:35:03.284Z,1.50
2023-04-04T01:36:03.436Z,1.50
2023-04-04T01:37:03.651Z,1.50
2023-04-04T01:38:03.453Z,1.50
2023-04-04T01:39:03.558Z,1.50
2023-04-04T01:40:03.804Z,1.50
2023-04-04T01:41:02.681Z,1.50
2023-04-04T01:42:02.837Z,1.50
2023-04-04T01:43:03.018Z,1.50
2023-04-04T01:44:02.962Z,1.50
2023-04-04T01:45:03.000Z,1.50
2023-04-04T01:46:03.165Z,1.50
2023-04-04T01:47:03.313Z,1.50
2023-04-04T01:48:03.331Z,1.50
2023-04-04T01:49:03.406Z,1.50
2023-04-04T01:50:03.481Z,1.50
2023-04-04T01:51:03.442Z,1.50
2023-04-04T01:52:03.784Z,1.50
2023-04-04T01:53:02.716Z,1.50
2023-04-04T01:54:02.752Z,1.50
2023-04-04T01:55:02.892Z,1.50
2023-04-04T01:56:02.765Z,1.50
2023-04-04T01:57:02.915Z,1.50
2023-04-04T01:58:02.991Z,1.50
2023-04-04T01:59:02.921Z,1.50
2023-04-04T02:00:03.029Z,1.50
2023-04-04T02:01:03.249Z,1.50
2023-04-04T02:02:03.420Z,1.50
2023-04-04T02:03:03.394Z,1.50
2023-04-04T02:04:03.791Z,1.40
2023-04-04T02:05:02.822Z,1.50
2023-04-04T02:06:02.808Z,1.50
2023-04-04T02:07:02.754Z,1.40
2023-04-04T02:08:02.863Z,1.40
2023-04-04T02:09:02.866Z,1.50
2023-04-04T02:10:03.255Z,1.40
2023-04-04T02:11:03.032Z,1.40
2023-04-04T02:12:03.217Z,1.40
2023-04-04T02:13:03.184Z,1.40
2023-04-04T02:14:03.229Z,1.40
2023-04-04T02:15:03.301Z,1.40
2023-04-04T02:16:03.620Z,1.40
2023-04-04T02:17:02.698Z,1.40
2023-04-04T02:18:02.739Z,1.40
2023-04-04T02:19:02.963Z,1.40
2023-04-04T02:20:02.961Z,1.40
2023-04-04T02:21:02.921Z,1.40
2023-04-04T02:22:03.155Z,1.40
2023-04-04T02:23:03.164Z,1.40
2023-04-04T02:24:03.216Z,1.40
2023-04-04T02:25:03.446Z,1.40
2023-04-04T02:26:03.366Z,1.40
2023-04-04T02:27:03.464Z,1.40
2023-04-04T02:28:03.919Z,1.40
2023-04-04T02:29:02.811Z,1.40
2023-04-04T02:30:02.810Z,1.40
2023-04-04T02:31:02.924Z,1.40
2023-04-04T02:32:02.895Z,1.40
2023-04-04T02:33:02.969Z,1.40
2023-04-04T02:34:03.102Z,1.40
2023-04-04T02:35:03.233Z,1.40
2023-04-04T02:36:03.248Z,1.40
2023-04-04T02:37:03.306Z,1.40
2023-04-04T02:38:03.249Z,1.40
2023-04-04T02:39:03.385Z,1.40
2023-04-04T02:40:03.539Z,1.40
2023-04-04T02:41:03.585Z,1.40
2023-04-04T02:42:02.673Z,1.30
2023-04-04T02:43:02.701Z,1.30
2023-04-04T02:44:02.824Z,1.30
2023-04-04T02:45:02.906Z,1.40
2023-04-04T02:46:10.969Z,1.30
2023-04-04T02:47:02.914Z,1.30
2023-04-04T02:48:02.947Z,1.30
2023-04-04T02:49:02.866Z,1.30
2023-04-04T02:50:02.976Z,1.30
2023-04-04T02:51:02.926Z,1.30
2023-04-04T02:52:03.019Z,1.30
2023-04-04T02:53:03.065Z,1.30
2023-04-04T02:54:03.070Z,1.30
2023-04-04T02:55:03.210Z,1.30
2023-04-04T02:56:03.180Z,1.30
2023-04-04T02:57:03.350Z,1.30
2023-04-04T02:58:03.635Z,1.30
2023-04-04T02:59:02.729Z,1.30
2023-04-04T03:00:02.651Z,1.30
2023-04-04T03:01:02.836Z,1.30
2023-04-04T03:02:02.789Z,1.30
2023-04-04T03:03:02.894Z,1.30
2023-04-04T03:04:02.877Z,1.30
2023-04-04T03:05:02.936Z,1.30
2023-04-04T03:06:02.784Z,1.30
2023-04-04T03:07:02.884Z,1.30
2023-04-04T03:08:02.904Z,1.30
2023-04-04T03:09:03.458Z,1.30
2023-04-04T03:10:03.736Z,1.30
2023-04-04T03:11:02.732Z,1.30
2023-04-04T03:12:02.860Z,1.30
2023-04-04T03:13:02.891Z,1.30
2023-04-04T03:14:02.923Z,1.30
2023-04-04T03:15:03.016Z,1.30
2023-04-04T03:16:03.376Z,1.30
2023-04-04T03:17:03.291Z,1.30
2023-04-04T03:18:03.431Z,1.30
2023-04-04T03:19:03.518Z,1.30
2023-04-04T03:20:03.403Z,1.30
2023-04-04T03:21:03.412Z,1.30
2023-04-04T03:22:03.766Z,1.30
2023-04-04T03:23:02.741Z,1.30
2023-04-04T03:24:02.845Z,1.30
2023-04-04T03:25:03.040Z,1.30
2023-04-04T03:26:03.010Z,1.20
2023-04-04T03:27:03.196Z,1.20
2023-04-04T03:28:03.396Z,1.20
2023-04-04T03:29:03.325Z,1.20
2023-04-04T03:30:03.336Z,1.20
2023-04-04T03:31:03.593Z,1.20
2023-04-04T03:32:03.564Z,1.20
2023-04-04T03:33:03.504Z,1.20
2023-04-04T03:34:03.870Z,1.20
2023-04-04T03:35:02.756Z,1.10
2023-04-04T03:36:02.840Z,1.10
2023-04-04T03:37:02.819Z,1.10
2023-04-04T03:38:02.816Z,1.10
2023-04-04T03:39:02.855Z,1.10
2023-04-04T03:40:03.017Z,1.10
2023-04-04T03:41:03.109Z,1.10
2023-04-04T03:42:03.166Z,1.10
2023-04-04T03:43:03.267Z,1.10
2023-04-04T03:44:03.237Z,1.10
2023-04-04T03:45:03.205Z,1.10
2023-04-04T03:46:03.325Z,1.10
2023-04-04T03:47:03.535Z,1.10
2023-04-04T03:48:03.623Z,1.10
2023-04-04T03:49:03.766Z,1.00
2023-04-04T03:50:03.012Z,1.00
2023-04-04T03:51:02.956Z,1.00
2023-04-04T03:52:03.227Z,1.00
2023-04-04T03:53:03.168Z,1.00
2023-04-04T03:54:03.234Z,1.00
2023-04-04T03:55:03.661Z,1.00
2023-04-04T03:56:03.507Z,1.00
2023-04-04T03:57:03.552Z,1.00
2023-04-04T03:58:03.818Z,0.90
2023-04-04T03:59:02.927Z,1.00
2023-04-04T04:00:02.879Z,0.90
2023-04-04T04:01:03.036Z,0.90
2023-04-04T04:02:02.937Z,0.90
2023-04-04T04:03:02.990Z,0.90
2023-04-04T04:04:03.068Z,0.90
2023-04-04T04:05:03.266Z,0.90
2023-04-04T04:06:03.315Z,0.90
2023-04-04T04:07:03.378Z,0.90
2023-04-04T04:08:02.717Z,0.90
2023-04-04T04:09:02.681Z,0.90
2023-04-04T04:10:02.919Z,0.80
2023-04-04T04:11:02.966Z,0.80
2023-04-04T04:12:02.937Z,0.80
2023-04-04T04:13:03.089Z,0.80
2023-04-04T04:14:03.252Z,0.80
2023-04-04T04:15:03.241Z,0.80
2023-04-04T04:16:03.599Z,0.80
2023-04-04T04:17:03.362Z,0.80
2023-04-04T04:18:03.498Z,0.80
2023-04-04T04:19:03.546Z,0.80
2023-04-04T04:20:03.503Z,0.80
2023-04-04T04:21:03.578Z,0.80
2023-04-04T04:22:02.734Z,0.80
2023-04-04T04:23:02.736Z,0.80
2023-04-04T04:24:02.708Z,0.80
2023-04-04T04:25:03.167Z,0.80
2023-04-04T04:26:03.117Z,0.80
2023-04-04T04:27:03.138Z,0.80
2023-04-04T04:28:03.270Z,0.80
2023-04-04T04:29:03.370Z,0.80
2023-04-04T04:30:03.410Z,0.70
2023-04-04T04:31:03.550Z,0.80
2023-04-04T04:32:03.608Z,0.80
2023-04-04T04:33:03.582Z,0.70
2023-04-04T04:34:03.894Z,0.70
2023-04-04T04:35:02.822Z,0.70
2023-04-04T04:36:02.814Z,0.70
2023-04-04T04:37:03.052Z,0.70
2023-04-04T04:38:03.264Z,0.70
2023-04-04T04:39:03.269Z,0.70
2023-04-04T04:40:03.693Z,0.70
2023-04-04T04:41:03.587Z,0.70
2023-04-04T04:42:03.623Z,0.70
2023-04-04T04:43:02.809Z,0.70
2023-04-04T04:44:02.894Z,0.70
2023-04-04T04:45:02.798Z,0.70
2023-04-04T04:46:02.784Z,0.70
2023-04-04T04:47:02.781Z,0.70
2023-04-04T04:48:03.053Z,0.70
2023-04-04T04:49:03.038Z,0.70
2023-04-04T04:50:02.944Z,0.70
2023-04-04T04:51:02.913Z,0.70
2023-04-04T04:52:03.152Z,0.70
2023-04-04T04:53:03.474Z,0.70
2023-04-04T04:54:03.025Z,0.70
2023-04-04T04:55:03.241Z,0.70
2023-04-04T04:56:03.174Z,0.70
2023-04-04T04:57:03.218Z,0.70
2023-04-04T04:58:03.429Z,0.70
2023-04-04T04:59:03.380Z,0.70
2023-04-04T05:00:03.415Z,0.70
2023-04-04T05:01:03.730Z,0.70
2023-04-04T05:02:02.739Z,0.70
2023-04-04T05:03:02.760Z,0.70
2023-04-04T05:04:02.857Z,0.70
2023-04-04T05:05:03.582Z,0.70
2023-04-04T05:06:02.665Z,0.70
2023-04-04T05:07:02.827Z,0.70
2023-04-04T05:08:02.793Z,0.70
2023-04-04T05:09:02.842Z,0.70
2023-04-04T05:10:03.048Z,0.70
2023-04-04T05:11:04.822Z,0.70
2023-04-04T05:12:03.280Z,0.70
2023-04-04T05:13:03.370Z,0.70
2023-04-04T05:14:03.394Z,0.70
2023-04-04T05:15:03.268Z,0.80
2023-04-04T05:16:03.473Z,0.70
2023-04-04T05:17:03.577Z,0.70
2023-04-04T05:18:03.494Z,0.70
2023-04-04T05:19:03.701Z,0.70
2023-04-04T05:20:02.892Z,0.70
2023-04-04T05:21:02.913Z,0.70
2023-04-04T05:22:02.879Z,0.70
2023-04-04T05:23:02.810Z,0.70
2023-04-04T05:24:02.662Z,0.70
2023-04-04T05:25:02.791Z,0.70
2023-04-04T05:26:03.243Z,0.70
2023-04-04T05:27:03.301Z,0.70
2023-04-04T05:28:03.364Z,0.70
2023-04-04T05:29:03.529Z,0.70
2023-04-04T05:30:03.498Z,0.70
2023-04-04T05:31:02.799Z,0.80
2023-04-04T05:32:02.857Z,0.70
2023-04-04T05:33:02.938Z,0.70
2023-04-04T05:34:03.172Z,0.70
2023-04-04T05:35:03.275Z,0.80
2023-04-04T05:36:03.389Z,0.70
2023-04-04T05:37:03.556Z,0.70
2023-04-04T05:38:02.630Z,0.80
2023-04-04T05:39:02.650Z,0.80
2023-04-04T05:40:02.662Z,0.70
2023-04-04T05:41:03.287Z,0.70
2023-04-04T05:42:03.431Z,0.70
2023-04-04T05:43:03.824Z,0.70
2023-04-04T05:44:02.790Z,0.70
2023-04-04T05:45:02.805Z,0.70
2023-04-04T05:46:02.867Z,0.70
2023-04-04T05:47:02.973Z,0.70
2023-04-04T05:48:02.925Z,0.70
2023-04-04T05:49:02.925Z,0.70
2023-04-04T05:50:03.154Z,0.70
2023-04-04T05:51:03.200Z,0.70
2023-04-04T05:52:02.978Z,0.70
2023-04-04T05:53:02.779Z,0.80
2023-04-04T05:54:02.824Z,0.80
2023-04-04T05:55:02.828Z,0.80
2023-04-04T05:56:02.771Z,0.80
2023-04-04T05:57:02.796Z,0.80
2023-04-04T05:58:02.840Z,0.80
2023-04-04T05:59:02.876Z,0.80
2023-04-04T06:00:02.772Z,0.80
2023-04-04T06:01:02.975Z,0.80
2023-04-04T06:02:03.011Z,0.80
2023-04-04T06:03:03.162Z,0.80
2023-04-04T06:04:03.174Z,0.80
2023-04-04T06:05:03.230Z,0.80
2023-04-04T06:06:03.229Z,0.80
2023-04-04T06:07:03.211Z,0.80
2023-04-04T06:08:03.400Z,0.80
2023-04-04T06:09:03.486Z,0.90
2023-04-04T06:10:03.617Z,0.90
2023-04-04T06:11:03.718Z,0.90
2023-04-04T06:12:04.021Z,0.90
2023-04-04T06:13:03.117Z,0.90
2023-04-04T06:14:03.228Z,0.90
2023-04-04T06:15:03.184Z,0.90
2023-04-04T06:16:03.490Z,0.90
2023-04-04T06:17:03.337Z,0.90
2023-04-04T06:18:03.550Z,0.90
2023-04-04T06:19:03.644Z,0.90
2023-04-04T06:20:03.537Z,0.90
2023-04-04T06:21:02.709Z,0.90
2023-04-04T06:22:02.691Z,1.00
2023-04-04T06:23:02.823Z,1.00
2023-04-04T06:24:02.974Z,1.00
2023-04-04T06:25:03.069Z,1.00
2023-04-04T06:26:02.980Z,1.00
2023-04-04T06:27:03.168Z,1.00
2023-04-04T06:28:02.967Z,1.00
2023-04-04T06:29:03.055Z,1.00
2023-04-04T06:30:03.078Z,1.00
2023-04-04T06:31:03.167Z,1.00
2023-04-04T06:32:03.246Z,1.00
2023-04-04T06:33:03.316Z,1.00
2023-04-04T06:34:03.598Z,1.00
2023-04-04T06:35:02.768Z,1.00
2023-04-04T06:36:02.738Z,1.10
2023-04-04T06:37:02.810Z,1.10
2023-04-04T06:38:03.152Z,1.10
2023-04-04T06:39:02.976Z,1.10
2023-04-04T06:40:03.212Z,1.10
2023-04-04T06:41:03.319Z,1.10
2023-04-04T06:42:03.410Z,1.10
2023-04-04T06:43:03.509Z,1.10
2023-04-04T06:44:03.560Z,1.10
2023-04-04T06:45:03.560Z,1.20
2023-04-04T06:46:03.813Z,1.20
2023-04-04T06:47:02.773Z,1.20
2023-04-04T06:48:02.888Z,1.20
2023-04-04T06:49:02.887Z,1.20
2023-04-04T06:50:02.962Z,1.20
2023-04-04T06:51:03.402Z,1.30
2023-04-04T06:52:03.578Z,1.30
2023-04-04T06:53:02.799Z,1.30
2023-04-04T06:54:02.838Z,1.30
2023-04-04T06:55:02.956Z,1.30
2023-04-04T06:56:02.872Z,1.30
2023-04-04T06:57:03.065Z,1.30
2023-04-04T06:58:03.222Z,1.30
2023-04-04T06:59:03.123Z,1.30
2023-04-04T07:00:02.990Z,1.30
2023-04-04T07:01:03.120Z,1.40
2023-04-04T07:02:03.127Z,1.40
2023-04-04T07:03:03.224Z,1.40
2023-04-04T07:04:03.478Z,1.40
2023-04-04T07:05:03.466Z,1.40
2023-04-04T07:06:03.365Z,1.50
2023-04-04T07:07:03.582Z,1.50
2023-04-04T07:08:03.544Z,1.50
2023-04-04T07:09:03.601Z,1.50
2023-04-04T07:10:03.893Z,1.50
2023-04-04T07:11:02.913Z,1.60
2023-04-04T07:12:04.083Z,1.60
2023-04-04T07:13:03.317Z,1.60
2023-04-04T07:14:03.294Z,1.60
2023-04-04T07:15:02.793Z,1.70
2023-04-04T07:16:02.891Z,1.70
2023-04-04T07:17:05.695Z,1.70
2023-04-04T07:18:03.085Z,1.70
2023-04-04T07:19:02.961Z,1.80
2023-04-04T07:20:04.736Z,1.80
2023-04-04T07:21:03.071Z,1.80
2023-04-04T07:22:03.112Z,1.80
2023-04-04T07:23:03.241Z,1.80
2023-04-04T07:24:03.149Z,1.80
2023-04-04T07:25:03.224Z,1.80
2023-04-04T07:26:03.297Z,1.80
2023-04-04T07:27:03.128Z,1.90
2023-04-04T07:28:12.173Z,1.90
2023-04-04T07:29:03.218Z,1.90
2023-04-04T07:30:03.233Z,1.90
2023-04-04T07:31:03.376Z,1.90
2023-04-04T07:32:03.240Z,2.00
2023-04-04T07:33:03.176Z,2.00
2023-04-04T07:34:03.310Z,2.00
2023-04-04T07:35:03.191Z,2.00
2023-04-04T07:36:03.304Z,2.10
2023-04-04T07:37:03.385Z,2.10
2023-04-04T07:38:03.327Z,2.10
2023-04-04T07:39:03.373Z,2.20
2023-04-04T07:40:03.545Z,2.20
2023-04-04T07:41:04.339Z,2.20
2023-04-04T07:42:03.446Z,2.20
2023-04-04T07:43:03.597Z,2.30
2023-04-04T07:44:02.723Z,2.30
2023-04-04T07:45:02.865Z,2.30
2023-04-04T07:46:02.880Z,2.30
2023-04-04T07:47:09.577Z,2.30
2023-04-04T07:48:03.094Z,2.40
2023-04-04T07:49:03.147Z,2.40
2023-04-04T07:50:03.035Z,2.40
2023-04-04T07:51:02.932Z,2.50
2023-04-04T07:52:03.215Z,2.50
2023-04-04T07:53:03.258Z,2.50
2023-04-04T07:54:03.119Z,2.50
2023-04-04T07:55:03.170Z,2.60
2023-04-04T07:56:03.170Z,2.60
2023-04-04T07:57:03.236Z,2.60
2023-04-04T07:58:03.408Z,2.60
2023-04-04T07:59:02.884Z,2.60
2023-04-04T08:00:02.935Z,2.60
2023-04-04T08:01:03.118Z,2.60
2023-04-04T08:02:03.095Z,2.60
2023-04-04T08:03:03.147Z,2.70
2023-04-04T08:04:03.430Z,2.70
2023-04-04T08:05:03.504Z,2.70
2023-04-04T08:06:03.475Z,2.70
2023-04-04T08:07:03.564Z,2.70
2023-04-04T08:08:03.266Z,2.70
2023-04-04T08:09:03.361Z,2.70
2023-04-04T08:10:03.665Z,2.80
2023-04-04T08:11:02.645Z,2.70
2023-04-04T08:12:02.726Z,2.80
2023-04-04T08:13:02.870Z,2.80
2023-04-04T08:14:02.967Z,2.80
2023-04-04T08:15:03.024Z,2.80
2023-04-04T08:16:03.256Z,2.80
2023-04-04T08:17:03.331Z,2.90
2023-04-04T08:18:03.416Z,2.90
2023-04-04T08:19:03.447Z,3.00
2023-04-04T08:20:03.622Z,3.00
2023-04-04T08:21:03.555Z,3.00
2023-04-04T08:22:03.796Z,3.10
2023-04-04T08:23:02.871Z,3.20
2023-04-04T08:24:02.892Z,3.20
2023-04-04T08:25:02.967Z,3.20
2023-04-04T08:26:02.996Z,3.30
2023-04-04T08:27:05.464Z,3.40
2023-04-04T08:28:03.284Z,3.40
2023-04-04T08:29:03.233Z,3.40
2023-04-04T08:30:03.189Z,3.40
2023-04-04T08:31:03.343Z,3.40
2023-04-04T08:32:03.370Z,3.40
2023-04-04T08:33:05.658Z,3.40
2023-04-04T08:34:03.511Z,3.40
2023-04-04T08:35:03.605Z,3.40
2023-04-04T08:36:03.473Z,3.40
2023-04-04T08:37:03.647Z,3.40
2023-04-04T08:38:03.520Z,3.40
2023-04-04T08:39:03.587Z,3.40
2023-04-04T08:40:02.797Z,3.40
2023-04-04T08:41:02.673Z,3.40
2023-04-04T08:42:02.796Z,3.50
2023-04-04T08:43:02.830Z,3.50
2023-04-04T08:44:02.807Z,3.50
2023-04-04T08:45:02.829Z,3.50
2023-04-04T08:46:02.857Z,3.60
2023-04-04T08:47:03.225Z,3.60
2023-04-04T08:48:03.107Z,3.60
2023-04-04T08:49:03.248Z,3.60
2023-04-04T08:50:03.329Z,3.60
2023-04-04T08:51:03.342Z,3.70
2023-04-04T08:52:03.683Z,3.70
2023-04-04T08:53:03.622Z,3.70
2023-04-04T08:54:03.556Z,3.70
2023-04-04T08:55:02.725Z,3.80
2023-04-04T08:56:02.836Z,3.90
2023-04-04T08:57:02.733Z,3.90
2023-04-04T08:58:02.801Z,3.90
2023-04-04T08:59:02.847Z,4.00
2023-04-04T09:00:02.878Z,4.00
2023-04-04T09:01:02.922Z,4.00
2023-04-04T09:02:02.843Z,4.00
2023-04-04T09:03:02.879Z,4.00
2023-04-04T09:04:02.906Z,4.00
2023-04-04T09:05:06.517Z,4.00
2023-04-04T09:06:02.992Z,4.00
2023-04-04T09:07:03.055Z,4.00
2023-04-04T09:08:03.069Z,4.00
2023-04-04T09:09:03.098Z,4.00
2023-04-04T09:10:03.182Z,4.00
2023-04-04T09:11:03.244Z,4.00
2023-04-04T09:12:03.409Z,4.00
2023-04-04T09:13:12.854Z,4.00
2023-04-04T09:14:03.355Z,4.00
2023-04-04T09:15:03.476Z,4.00
2023-04-04T09:16:03.619Z,4.00
2023-04-04T09:17:02.838Z,4.00
2023-04-04T09:18:02.927Z,4.00
2023-04-04T09:19:02.962Z,4.00
2023-04-04T09:20:03.074Z,4.00
2023-04-04T09:21:02.907Z,4.00
2023-04-04T09:22:02.902Z,4.00
2023-04-04T09:23:02.976Z,3.90
2023-04-04T09:24:02.892Z,3.90
2023-04-04T09:25:03.037Z,4.00
2023-04-04T09:26:04.575Z,3.90
2023-04-04T09:27:03.051Z,4.00
2023-04-04T09:28:03.131Z,3.90
2023-04-04T09:29:03.243Z,3.90
2023-04-04T09:30:05.313Z,3.90
2023-04-04T09:31:03.249Z,3.90
2023-04-04T09:32:03.159Z,3.80
2023-04-04T09:33:03.289Z,3.80
2023-04-04T09:34:03.175Z,3.80
2023-04-04T09:35:03.325Z,3.80
2023-04-04T09:36:03.492Z,3.80
2023-04-04T09:37:03.728Z,3.80
2023-04-04T09:38:02.738Z,3.80
2023-04-04T09:39:03.670Z,3.80
2023-04-04T09:40:03.819Z,3.70
2023-04-04T09:41:02.747Z,3.80
2023-04-04T09:42:02.728Z,3.80
2023-04-04T09:43:02.825Z,3.80
2023-04-04T09:44:02.825Z,3.80
2023-04-04T09:45:02.932Z,3.80
2023-04-04T09:46:02.956Z,3.80
2023-04-04T09:47:02.895Z,3.80
2023-04-04T09:48:03.081Z,3.80
2023-04-04T09:49:02.972Z,3.90
2023-04-04T09:50:03.010Z,3.90
2023-04-04T09:51:02.999Z,3.80
2023-04-04T09:52:03.213Z,3.80
2023-04-04T09:53:03.340Z,3.80
2023-04-04T09:54:03.447Z,3.80
2023-04-04T09:55:03.719Z,3.80
2023-04-04T09:56:03.807Z,3.80
2023-04-04T09:57:03.513Z,3.80
2023-04-04T09:58:03.782Z,3.80
2023-04-04T09:59:04.197Z,3.80
2023-04-04T10:00:02.729Z,3.80
2023-04-04T10:01:02.851Z,3.80
2023-04-04T10:02:02.857Z,3.80
2023-04-04T10:03:02.831Z,3.80
2023-04-04T10:04:02.712Z,3.80
2023-04-04T10:05:06.477Z,3.80
2023-04-04T10:06:05.629Z,3.80
2023-04-04T10:07:03.734Z,3.80
2023-04-04T10:08:02.773Z,3.80
2023-04-04T10:09:02.840Z,3.80
2023-04-04T10:10:02.712Z,3.80
2023-04-04T10:11:10.938Z,3.80
2023-04-04T10:12:02.778Z,3.80
2023-04-04T10:13:03.530Z,3.80
2023-04-04T10:14:03.614Z,3.80
2023-04-04T10:15:02.642Z,3.80
2023-04-04T10:16:02.974Z,3.80
2023-04-04T10:17:02.862Z,3.90
2023-04-04T10:18:02.899Z,3.90
2023-04-04T10:19:02.951Z,3.90
2023-04-04T10:20:02.694Z,3.90
2023-04-04T10:21:14.427Z,3.90
2023-04-04T10:22:03.703Z,3.90
2023-04-04T10:23:02.787Z,4.00
2023-04-04T10:24:02.888Z,4.00
2023-04-04T10:25:03.083Z,4.00
2023-04-04T10:26:03.203Z,4.00
2023-04-04T10:27:03.216Z,4.00
2023-04-04T10:28:03.287Z,4.00
2023-04-04T10:29:03.331Z,4.00
2023-04-04T10:30:03.535Z,4.10
2023-04-04T10:31:06.948Z,4.10
2023-04-04T10:32:03.678Z,4.10
2023-04-04T10:33:02.821Z,4.10
2023-04-04T10:34:02.903Z,4.20
2023-04-04T10:35:03.041Z,4.20
2023-04-04T10:36:03.117Z,4.20
2023-04-04T10:37:03.168Z,4.20
2023-04-04T10:38:03.059Z,4.20
2023-04-04T10:39:03.158Z,4.20
2023-04-04T10:40:03.251Z,4.20
2023-04-04T10:41:03.191Z,4.20
2023-04-04T10:42:03.232Z,4.20
2023-04-04T10:43:03.264Z,4.30
2023-04-04T10:44:03.387Z,4.30
2023-04-04T10:45:13.098Z,4.40
2023-04-04T10:46:02.682Z,4.40
2023-04-04T10:47:02.733Z,4.50
2023-04-04T10:48:02.652Z,4.60
2023-04-04T10:49:02.709Z,4.60
2023-04-04T10:50:02.674Z,4.70
2023-04-04T10:51:02.703Z,4.70
2023-04-04T10:52:02.918Z,4.80
2023-04-04T10:53:02.768Z,4.80
2023-04-04T10:54:02.787Z,4.80
2023-04-04T10:55:02.980Z,4.80
2023-04-04T10:56:02.933Z,4.80
2023-04-04T10:57:02.923Z,4.80
2023-04-04T10:58:03.011Z,4.80
2023-04-04T10:59:03.080Z,4.80
2023-04-04T11:00:03.208Z,4.80
2023-04-04T11:01:03.454Z,4.70
2023-04-04T11:02:03.461Z,4.70
2023-04-04T11:03:03.548Z,4.70
2023-04-04T11:04:03.584Z,4.60
2023-04-04T11:05:02.775Z,4.60
2023-04-04T11:06:02.663Z,4.50
2023-04-04T11:07:02.793Z,4.50
2023-04-04T11:08:08.484Z,4.50
2023-04-04T11:09:02.715Z,4.40
2023-04-04T11:10:03.776Z,4.40
2023-04-04T11:11:05.033Z,4.40
2023-04-04T11:12:02.920Z,4.30
2023-04-04T11:13:12.171Z,4.30
2023-04-04T11:14:03.009Z,4.30
2023-04-04T11:15:03.102Z,4.30
2023-04-04T11:16:03.446Z,4.20
2023-04-04T11:17:03.381Z,4.20
2023-04-04T11:18:07.854Z,4.20
2023-04-04T11:19:03.620Z,4.20
2023-04-04T11:20:02.730Z,4.20
2023-04-04T11:21:03.725Z,4.20
2023-04-04T11:22:03.740Z,4.20
2023-04-04T11:23:02.718Z,4.20
2023-04-04T11:24:02.813Z,4.20
2023-04-04T11:25:02.913Z,4.20
2023-04-04T11:26:02.842Z,4.20
2023-04-04T11:27:02.886Z,4.30
2023-04-04T11:28:02.911Z,4.30
2023-04-04T11:29:02.850Z,4.30
2023-04-04T11:30:02.882Z,4.30
2023-04-04T11:31:03.082Z,4.30
2023-04-04T11:32:02.992Z,4.40
2023-04-04T11:33:07.596Z,4.40
2023-04-04T11:34:03.060Z,4.40
2023-04-04T11:35:03.038Z,4.50
2023-04-04T11:36:03.067Z,4.50
2023-04-04T11:37:03.105Z,4.50
2023-04-04T11:38:02.923Z,4.50
2023-04-04T11:39:03.028Z,4.60
2023-04-04T11:40:03.190Z,4.60
2023-04-04T11:41:03.109Z,4.60
2023-04-04T11:42:03.181Z,4.60
2023-04-04T11:43:03.330Z,4.60
2023-04-04T11:44:03.422Z,4.60
2023-04-04T11:45:03.414Z,4.70
2023-04-04T11:46:03.406Z,4.70
2023-04-04T11:47:03.501Z,4.70
2023-04-04T11:48:03.477Z,4.70
2023-04-04T11:49:03.484Z,4.80
2023-04-04T11:50:02.832Z,4.80
2023-04-04T11:51:02.781Z,4.90
2023-04-04T11:52:02.909Z,4.90
2023-04-04T11:53:02.935Z,5.00
2023-04-04T11:54:03.235Z,5.10
2023-04-04T11:55:03.460Z,5.20
2023-04-04T11:56:03.514Z,5.30
2023-04-04T11:57:03.444Z,5.30
2023-04-04T11:58:03.737Z,5.30
2023-04-04T11:59:10.859Z,5.40
2023-04-04T12:00:02.813Z,5.40
2023-04-04T12:01:02.918Z,5.30
2023-04-04T12:02:02.816Z,5.30
2023-04-04T12:03:03.026Z,5.30
2023-04-04T12:04:02.941Z,5.30
2023-04-04T12:05:03.134Z,5.30
2023-04-04T12:06:03.157Z,5.30
2023-04-04T12:07:03.396Z,5.30
2023-04-04T12:08:03.365Z,5.30
2023-04-04T12:09:03.491Z,5.30
2023-04-04T12:10:03.784Z,5.30
2023-04-04T12:11:02.728Z,5.20
2023-04-04T12:12:02.680Z,5.20
2023-04-04T12:13:02.890Z,5.20
2023-04-04T12:14:02.961Z,5.20
2023-04-04T12:15:10.718Z,5.20
2023-04-04T12:16:03.126Z,5.10
2023-04-04T12:17:03.124Z,5.10
2023-04-04T12:18:03.250Z,5.20
2023-04-04T12:19:03.321Z,5.20
2023-04-04T12:20:03.326Z,5.20
2023-04-04T12:21:03.216Z,5.20
2023-04-04T12:22:05.198Z,5.30
2023-04-04T12:23:03.251Z,5.30
2023-04-04T12:24:03.289Z,5.40
2023-04-04T12:25:03.410Z,5.50
2023-04-04T12:26:03.400Z,5.50
2023-04-04T12:27:03.543Z,5.50
2023-04-04T12:28:03.837Z,5.50
2023-04-04T12:29:03.594Z,5.50
2023-04-04T12:30:03.648Z,5.50
2023-04-04T12:31:02.700Z,5.50
2023-04-04T12:32:02.802Z,5.50
2023-04-04T12:33:02.829Z,5.50
2023-04-04T12:34:02.729Z,5.50
2023-04-04T12:35:02.762Z,5.40
2023-04-04T12:36:02.673Z,5.40
2023-04-04T12:37:02.748Z,5.40
2023-04-04T12:38:02.985Z,5.30
2023-04-04T12:39:02.808Z,5.30
2023-04-04T12:40:03.078Z,5.30
2023-04-04T12:41:02.970Z,5.30
2023-04-04T12:42:03.047Z,5.20
2023-04-04T12:43:02.909Z,5.20
2023-04-04T12:44:03.175Z,5.10
2023-04-04T12:45:03.101Z,5.10
2023-04-04T12:46:03.183Z,5.10
2023-04-04T12:47:03.083Z,5.10
2023-04-04T12:48:03.141Z,5.10
2023-04-04T12:49:03.324Z,5.10
2023-04-04T12:50:03.201Z,5.10
2023-04-04T12:51:03.281Z,5.10
2023-04-04T12:52:03.679Z,5.10
2023-04-04T12:53:18.674Z,5.10
2023-04-04T12:54:03.470Z,5.10
2023-04-04T12:56:03.653Z,5.10
2023-04-04T12:57:03.575Z,5.10
2023-04-04T12:58:03.652Z,5.10
2023-04-04T12:59:02.866Z,5.10
2023-04-04T13:00:02.752Z,5.10
2023-04-04T13:01:02.836Z,5.10
2023-04-04T13:02:02.996Z,5.10
2023-04-04T13:03:02.820Z,5.10
2023-04-04T13:04:02.946Z,5.10
2023-04-04T13:05:02.867Z,5.10
2023-04-04T13:06:03.065Z,5.20
2023-04-04T13:07:02.841Z,5.20
2023-04-04T13:08:03.002Z,5.20
2023-04-04T13:09:02.989Z,5.20
2023-04-04T13:10:03.078Z,5.30
2023-04-04T13:11:02.976Z,5.30
2023-04-04T13:12:02.909Z,5.30
2023-04-04T13:13:03.036Z,5.30
2023-04-04T13:14:02.964Z,5.30
2023-04-04T13:15:02.924Z,5.30
2023-04-04T13:16:03.033Z,5.30
2023-04-04T13:17:02.989Z,5.30
2023-04-04T13:18:03.086Z,5.30
2023-04-04T13:19:02.993Z,5.30